Boston, Massachusetts
Traffic Map
Current Weather Conditions
Boston, Massachusetts
Overcast Light Rain
Overcast
56°
Feels Like: 56°
Wind Chill: 56° Ceiling: 600
Heat Index: 56° Visibility: 5mi
Dew Point: 55° Wind: 9mph
Humidity: 97% Direction: 20° (NNE)
Pressure: 30.04in Gusts: 0mph
Raw Report DataKBOS 301154Z 02008KT 5SM -RA BR OVC006 13/13 A3004 RMK AO2 RAB1056 SLP172 P0000 60000 T01330128 10139 20133 53014
Traffic Incident Summary
Active as of:
Severity:
Category:
InformationThere was an issue retrieving the traffic information for this location. Please try a different location or try again shortly.
Advertisements
Track Severe Weather on mobile